sensor_id;sensor_type;location;lat;lon;timestamp;noise_LAeq;noise_LA_min;noise_LA_max;noise_LA01;noise_LA95
71628;Laerm;59477;52.374;9.916;2022-07-29T00:01:52;36.03;32.36;53.07;;
71628;Laerm;59477;52.374;9.916;2022-07-29T00:03:52;36.43;33.03;44.67;;
71628;Laerm;59477;52.374;9.916;2022-07-29T00:05:53;38.46;34.27;54.21;;
71628;Laerm;59477;52.374;9.916;2022-07-29T00:07:53;39.22;34.81;47.21;;
71628;Laerm;59477;52.374;9.916;2022-07-29T00:09:54;51.80;34.16;61.23;;
71628;Laerm;59477;52.374;9.916;2022-07-29T00:11:55;41.79;34.43;50.21;;
71628;Laerm;59477;52.374;9.916;2022-07-29T00:13:57;42.44;35.21;52.67;;
71628;Laerm;59477;52.374;9.916;2022-07-29T00:15:57;42.22;33.29;55.08;;
71628;Laerm;59477;52.374;9.916;2022-07-29T00:17:58;36.34;33.04;42.62;;
71628;Laerm;59477;52.374;9.916;2022-07-29T00:19:58;42.41;33.33;55.28;;
71628;Laerm;59477;52.374;9.916;2022-07-29T00:21:59;37.65;32.55;47.64;;
71628;Laerm;59477;52.374;9.916;2022-07-29T00:24:00;38.80;33.75;57.49;;
71628;Laerm;59477;52.374;9.916;2022-07-29T00:26:00;39.75;33.74;48.77;;
71628;Laerm;59477;52.374;9.916;2022-07-29T00:28:01;37.28;33.26;46.12;;
71628;Laerm;59477;52.374;9.916;2022-07-29T00:30:02;37.22;33.57;44.79;;
71628;Laerm;59477;52.374;9.916;2022-07-29T00:32:03;37.17;34.15;41.72;;
71628;Laerm;59477;52.374;9.916;2022-07-29T00:34:03;39.36;35.07;45.82;;
71628;Laerm;59477;52.374;9.916;2022-07-29T00:36:04;44.14;35.37;51.95;;
71628;Laerm;59477;52.374;9.916;2022-07-29T00:38:05;37.49;34.18;48.65;;
71628;Laerm;59477;52.374;9.916;2022-07-29T00:40:05;49.31;34.92;59.80;;
71628;Laerm;59477;52.374;9.916;2022-07-29T00:42:06;39.80;32.91;49.14;;
71628;Laerm;59477;52.374;9.916;2022-07-29T00:44:07;45.16;35.71;52.19;;
71628;Laerm;59477;52.374;9.916;2022-07-29T00:46:07;42.99;38.00;58.14;;
71628;Laerm;59477;52.374;9.916;2022-07-29T00:48:08;41.32;36.53;52.65;;
71628;Laerm;59477;52.374;9.916;2022-07-29T00:50:09;44.41;36.97;51.79;;
71628;Laerm;59477;52.374;9.916;2022-07-29T00:52:10;38.96;35.16;47.17;;
71628;Laerm;59477;52.374;9.916;2022-07-29T00:54:11;38.93;34.78;52.72;;
71628;Laerm;59477;52.374;9.916;2022-07-29T00:56:13;37.80;33.81;49.18;;
71628;Laerm;59477;52.374;9.916;2022-07-29T00:58:13;37.96;32.68;44.66;;
71628;Laerm;59477;52.374;9.916;2022-07-29T01:00:16;48.73;38.74;54.61;;
71628;Laerm;59477;52.374;9.916;2022-07-29T01:02:17;47.50;36.84;56.25;;
71628;Laerm;59477;52.374;9.916;2022-07-29T01:04:18;42.42;35.88;56.42;;
71628;Laerm;59477;52.374;9.916;2022-07-29T01:06:19;38.58;34.40;44.91;;
71628;Laerm;59477;52.374;9.916;2022-07-29T01:08:20;41.64;34.49;49.10;;
71628;Laerm;59477;52.374;9.916;2022-07-29T01:10:21;46.63;40.07;55.89;;
71628;Laerm;59477;52.374;9.916;2022-07-29T01:12:24;42.56;35.61;52.38;;
71628;Laerm;59477;52.374;9.916;2022-07-29T01:14:25;42.89;35.64;51.23;;
71628;Laerm;59477;52.374;9.916;2022-07-29T01:16:33;39.80;34.95;47.70;;
71628;Laerm;59477;52.374;9.916;2022-07-29T01:18:37;37.93;34.01;46.71;;
71628;Laerm;59477;52.374;9.916;2022-07-29T01:25:19;40.96;36.32;47.45;;
71628;Laerm;59477;52.374;9.916;2022-07-29T01:30:16;45.65;37.11;52.76;;
71628;Laerm;59477;52.374;9.916;2022-07-29T01:32:05;43.42;37.36;51.50;;
71628;Laerm;59477;52.374;9.916;2022-07-29T01:34:08;40.99;35.81;47.81;;
71628;Laerm;59477;52.374;9.916;2022-07-29T01:36:11;47.36;37.20;54.80;;
71628;Laerm;59477;52.374;9.916;2022-07-29T01:38:16;47.47;39.00;58.27;;
71628;Laerm;59477;52.374;9.916;2022-07-29T01:40:22;51.74;37.03;62.96;;
71628;Laerm;59477;52.374;9.916;2022-07-29T01:42:35;41.29;37.09;51.24;;
71628;Laerm;59477;52.374;9.916;2022-07-29T01:44:48;43.79;38.11;50.65;;
71628;Laerm;59477;52.374;9.916;2022-07-29T01:46:55;44.04;37.50;52.86;;
71628;Laerm;59477;52.374;9.916;2022-07-29T01:48:57;45.71;35.52;55.87;;
71628;Laerm;59477;52.374;9.916;2022-07-29T01:51:14;38.44;34.52;49.56;;
71628;Laerm;59477;52.374;9.916;2022-07-29T01:53:21;45.28;36.15;53.44;;
71628;Laerm;59477;52.374;9.916;2022-07-29T01:55:27;46.07;35.76;54.23;;
71628;Laerm;59477;52.374;9.916;2022-07-29T01:57:29;38.04;33.95;45.83;;
71628;Laerm;59477;52.374;9.916;2022-07-29T01:59:31;38.78;35.59;45.62;;
71628;Laerm;59477;52.374;9.916;2022-07-29T02:01:34;39.61;36.32;45.72;;
71628;Laerm;59477;52.374;9.916;2022-07-29T02:03:35;41.56;36.87;50.08;;
71628;Laerm;59477;52.374;9.916;2022-07-29T02:05:37;44.08;35.91;53.10;;
71628;Laerm;59477;52.374;9.916;2022-07-29T02:07:40;42.16;36.90;51.20;;
71628;Laerm;59477;52.374;9.916;2022-07-29T02:09:41;45.45;37.24;53.16;;
71628;Laerm;59477;52.374;9.916;2022-07-29T02:11:44;45.25;38.02;51.80;;
71628;Laerm;59477;52.374;9.916;2022-07-29T02:13:47;38.95;35.24;48.95;;
71628;Laerm;59477;52.374;9.916;2022-07-29T02:15:49;41.94;37.05;47.84;;
71628;Laerm;59477;52.374;9.916;2022-07-29T02:17:56;47.37;40.93;53.30;;
71628;Laerm;59477;52.374;9.916;2022-07-29T02:19:59;42.88;36.85;48.99;;
71628;Laerm;59477;52.374;9.916;2022-07-29T02:22:00;45.46;36.25;52.45;;
71628;Laerm;59477;52.374;9.916;2022-07-29T02:24:01;42.51;36.08;47.66;;
71628;Laerm;59477;52.374;9.916;2022-07-29T02:26:03;41.28;35.81;47.18;;
71628;Laerm;59477;52.374;9.916;2022-07-29T02:28:04;42.76;37.65;49.16;;
71628;Laerm;59477;52.374;9.916;2022-07-29T02:30:05;44.04;37.32;52.94;;
71628;Laerm;59477;52.374;9.916;2022-07-29T02:32:07;42.41;36.25;50.57;;
71628;Laerm;59477;52.374;9.916;2022-07-29T02:34:09;41.68;36.33;51.73;;
71628;Laerm;59477;52.374;9.916;2022-07-29T02:36:10;40.64;37.01;48.20;;
71628;Laerm;59477;52.374;9.916;2022-07-29T02:38:12;44.32;37.46;52.53;;
71628;Laerm;59477;52.374;9.916;2022-07-29T02:40:33;40.18;36.71;44.92;;
71628;Laerm;59477;52.374;9.916;2022-07-29T02:42:33;39.46;35.93;45.64;;
71628;Laerm;59477;52.374;9.916;2022-07-29T02:44:36;41.87;36.51;47.36;;
71628;Laerm;59477;52.374;9.916;2022-07-29T02:46:37;53.58;36.89;62.12;;
71628;Laerm;59477;52.374;9.916;2022-07-29T02:48:43;48.81;38.35;56.62;;
71628;Laerm;59477;52.374;9.916;2022-07-29T02:50:50;40.46;36.25;46.39;;
71628;Laerm;59477;52.374;9.916;2022-07-29T02:52:52;44.54;35.37;54.20;;
71628;Laerm;59477;52.374;9.916;2022-07-29T02:56:59;42.69;37.61;50.62;;
71628;Laerm;59477;52.374;9.916;2022-07-29T02:59:02;42.93;37.05;54.18;;
71628;Laerm;59477;52.374;9.916;2022-07-29T03:01:03;42.23;36.97;48.09;;
71628;Laerm;59477;52.374;9.916;2022-07-29T03:03:07;43.90;40.00;49.86;;
71628;Laerm;59477;52.374;9.916;2022-07-29T03:05:10;45.71;37.17;52.95;;
71628;Laerm;59477;52.374;9.916;2022-07-29T03:07:12;44.56;38.80;52.69;;
71628;Laerm;59477;52.374;9.916;2022-07-29T03:09:14;41.57;37.12;52.57;;
71628;Laerm;59477;52.374;9.916;2022-07-29T03:11:15;45.33;37.81;60.34;;
71628;Laerm;59477;52.374;9.916;2022-07-29T03:13:17;44.22;38.07;61.96;;
71628;Laerm;59477;52.374;9.916;2022-07-29T03:15:18;42.36;38.65;52.75;;
71628;Laerm;59477;52.374;9.916;2022-07-29T03:17:19;41.97;38.11;51.72;;
71628;Laerm;59477;52.374;9.916;2022-07-29T03:19:21;40.78;37.26;47.73;;
71628;Laerm;59477;52.374;9.916;2022-07-29T03:21:22;41.77;37.72;50.57;;
71628;Laerm;59477;52.374;9.916;2022-07-29T03:23:22;41.90;37.18;55.74;;
71628;Laerm;59477;52.374;9.916;2022-07-29T03:25:24;41.32;38.14;47.11;;
71628;Laerm;59477;52.374;9.916;2022-07-29T03:27:25;41.30;38.34;45.01;;
71628;Laerm;59477;52.374;9.916;2022-07-29T03:29:25;40.90;37.78;45.59;;
71628;Laerm;59477;52.374;9.916;2022-07-29T03:31:26;47.09;38.75;62.03;;
71628;Laerm;59477;52.374;9.916;2022-07-29T03:33:27;44.45;38.25;57.70;;
71628;Laerm;59477;52.374;9.916;2022-07-29T03:35:29;45.63;38.17;57.83;;
71628;Laerm;59477;52.374;9.916;2022-07-29T03:37:31;46.37;40.14;53.57;;
71628;Laerm;59477;52.374;9.916;2022-07-29T03:39:36;45.12;39.64;56.96;;
71628;Laerm;59477;52.374;9.916;2022-07-29T03:41:39;46.31;42.08;59.21;;
71628;Laerm;59477;52.374;9.916;2022-07-29T03:43:41;44.53;39.44;51.60;;
71628;Laerm;59477;52.374;9.916;2022-07-29T03:45:44;49.62;38.93;59.09;;
71628;Laerm;59477;52.374;9.916;2022-07-29T03:47:47;41.92;37.78;48.06;;
71628;Laerm;59477;52.374;9.916;2022-07-29T03:49:49;42.71;38.66;51.34;;
71628;Laerm;59477;52.374;9.916;2022-07-29T03:51:50;42.96;39.45;51.54;;
71628;Laerm;59477;52.374;9.916;2022-07-29T03:53:51;42.58;39.02;48.34;;
71628;Laerm;59477;52.374;9.916;2022-07-29T03:55:54;46.71;40.28;53.78;;
71628;Laerm;59477;52.374;9.916;2022-07-29T03:57:55;47.22;40.75;54.18;;
71628;Laerm;59477;52.374;9.916;2022-07-29T03:59:57;42.79;39.26;49.43;;
71628;Laerm;59477;52.374;9.916;2022-07-29T04:01:58;42.53;38.74;48.85;;
71628;Laerm;59477;52.374;9.916;2022-07-29T04:03:59;43.74;38.87;55.55;;
71628;Laerm;59477;52.374;9.916;2022-07-29T04:06:01;52.56;39.21;63.81;;
71628;Laerm;59477;52.374;9.916;2022-07-29T04:08:02;44.93;39.82;52.43;;
71628;Laerm;59477;52.374;9.916;2022-07-29T04:10:02;42.35;38.78;58.83;;
71628;Laerm;59477;52.374;9.916;2022-07-29T04:12:03;43.45;39.27;52.95;;
71628;Laerm;59477;52.374;9.916;2022-07-29T04:14:04;45.55;40.32;57.59;;
71628;Laerm;59477;52.374;9.916;2022-07-29T04:16:04;47.07;40.85;52.84;;
71628;Laerm;59477;52.374;9.916;2022-07-29T04:18:05;42.96;38.64;57.60;;
71628;Laerm;59477;52.374;9.916;2022-07-29T04:20:06;44.49;39.70;50.82;;
71628;Laerm;59477;52.374;9.916;2022-07-29T04:22:06;42.64;39.69;49.18;;
71628;Laerm;59477;52.374;9.916;2022-07-29T04:24:07;43.40;39.43;49.84;;
71628;Laerm;59477;52.374;9.916;2022-07-29T04:26:08;48.16;40.75;56.46;;
71628;Laerm;59477;52.374;9.916;2022-07-29T04:28:10;48.67;39.88;59.95;;
71628;Laerm;59477;52.374;9.916;2022-07-29T04:30:11;47.55;39.34;60.37;;
71628;Laerm;59477;52.374;9.916;2022-07-29T04:32:12;42.68;38.89;47.35;;
71628;Laerm;59477;52.374;9.916;2022-07-29T04:34:13;43.45;39.89;53.61;;
71628;Laerm;59477;52.374;9.916;2022-07-29T04:36:14;45.86;40.80;53.95;;
71628;Laerm;59477;52.374;9.916;2022-07-29T04:38:14;42.65;39.39;49.62;;
71628;Laerm;59477;52.374;9.916;2022-07-29T04:40:15;47.30;40.77;65.55;;
71628;Laerm;59477;52.374;9.916;2022-07-29T04:42:16;45.82;40.40;57.69;;
71628;Laerm;59477;52.374;9.916;2022-07-29T04:44:16;45.59;39.55;58.45;;
71628;Laerm;59477;52.374;9.916;2022-07-29T04:46:17;44.92;40.48;54.48;;
71628;Laerm;59477;52.374;9.916;2022-07-29T04:48:17;47.36;40.12;58.46;;
71628;Laerm;59477;52.374;9.916;2022-07-29T04:50:18;43.69;40.00;51.11;;
71628;Laerm;59477;52.374;9.916;2022-07-29T04:52:18;45.80;39.36;62.70;;
71628;Laerm;59477;52.374;9.916;2022-07-29T04:54:19;44.17;39.24;62.37;;
71628;Laerm;59477;52.374;9.916;2022-07-29T04:56:19;45.45;39.49;63.40;;
71628;Laerm;59477;52.374;9.916;2022-07-29T04:58:20;45.27;39.58;60.65;;
71628;Laerm;59477;52.374;9.916;2022-07-29T05:00:20;45.05;39.23;61.06;;
71628;Laerm;59477;52.374;9.916;2022-07-29T05:02:21;44.59;39.20;58.92;;
71628;Laerm;59477;52.374;9.916;2022-07-29T05:04:22;43.27;38.47;53.96;;
71628;Laerm;59477;52.374;9.916;2022-07-29T05:06:23;45.55;41.15;61.77;;
71628;Laerm;59477;52.374;9.916;2022-07-29T05:08:23;44.94;39.57;53.89;;
71628;Laerm;59477;52.374;9.916;2022-07-29T05:10:24;44.92;40.16;54.61;;
71628;Laerm;59477;52.374;9.916;2022-07-29T05:12:25;48.01;40.87;59.54;;
71628;Laerm;59477;52.374;9.916;2022-07-29T05:14:25;44.89;40.67;54.25;;
71628;Laerm;59477;52.374;9.916;2022-07-29T05:16:26;45.63;40.91;55.97;;
71628;Laerm;59477;52.374;9.916;2022-07-29T05:18:26;48.87;41.36;56.87;;
71628;Laerm;59477;52.374;9.916;2022-07-29T05:20:27;45.26;40.84;52.84;;
71628;Laerm;59477;52.374;9.916;2022-07-29T05:22:28;48.56;39.98;54.91;;
71628;Laerm;59477;52.374;9.916;2022-07-29T05:24:29;44.02;40.31;50.48;;
71628;Laerm;59477;52.374;9.916;2022-07-29T05:26:32;45.45;40.17;54.84;;
71628;Laerm;59477;52.374;9.916;2022-07-29T05:28:33;44.24;40.20;49.63;;
71628;Laerm;59477;52.374;9.916;2022-07-29T05:30:35;45.56;40.49;52.12;;
71628;Laerm;59477;52.374;9.916;2022-07-29T05:32:35;46.29;41.16;52.47;;
71628;Laerm;59477;52.374;9.916;2022-07-29T05:34:36;43.64;39.90;48.65;;
71628;Laerm;59477;52.374;9.916;2022-07-29T05:36:36;43.01;39.02;49.59;;
71628;Laerm;59477;52.374;9.916;2022-07-29T05:38:37;42.43;38.54;48.70;;
71628;Laerm;59477;52.374;9.916;2022-07-29T05:40:38;44.13;40.47;50.87;;
71628;Laerm;59477;52.374;9.916;2022-07-29T05:42:38;43.28;39.58;50.82;;
71628;Laerm;59477;52.374;9.916;2022-07-29T05:44:39;44.35;39.79;61.41;;
71628;Laerm;59477;52.374;9.916;2022-07-29T05:46:40;44.80;39.25;63.55;;
71628;Laerm;59477;52.374;9.916;2022-07-29T05:48:40;44.14;40.48;57.97;;
71628;Laerm;59477;52.374;9.916;2022-07-29T05:50:41;42.97;39.04;57.22;;
71628;Laerm;59477;52.374;9.916;2022-07-29T05:52:41;42.62;39.49;47.91;;
71628;Laerm;59477;52.374;9.916;2022-07-29T05:54:42;43.73;40.22;55.73;;
71628;Laerm;59477;52.374;9.916;2022-07-29T05:56:42;45.79;40.89;55.79;;
71628;Laerm;59477;52.374;9.916;2022-07-29T05:58:43;44.30;39.27;58.36;;
71628;Laerm;59477;52.374;9.916;2022-07-29T06:00:44;47.14;38.46;63.81;;
71628;Laerm;59477;52.374;9.916;2022-07-29T06:02:44;43.23;38.57;54.03;;
71628;Laerm;59477;52.374;9.916;2022-07-29T06:04:45;51.45;42.00;61.12;;
71628;Laerm;59477;52.374;9.916;2022-07-29T06:06:45;42.23;38.72;57.81;;
71628;Laerm;59477;52.374;9.916;2022-07-29T06:08:46;47.96;39.58;65.28;;
71628;Laerm;59477;52.374;9.916;2022-07-29T06:10:46;43.63;39.26;54.39;;
71628;Laerm;59477;52.374;9.916;2022-07-29T06:12:47;44.06;39.11;59.58;;
71628;Laerm;59477;52.374;9.916;2022-07-29T06:14:48;42.69;39.04;50.34;;
71628;Laerm;59477;52.374;9.916;2022-07-29T06:16:48;41.90;37.84;49.15;;
71628;Laerm;59477;52.374;9.916;2022-07-29T06:18:49;41.96;37.70;51.26;;
71628;Laerm;59477;52.374;9.916;2022-07-29T06:20:50;43.83;37.62;52.24;;
71628;Laerm;59477;52.374;9.916;2022-07-29T06:22:51;40.51;37.24;52.47;;
71628;Laerm;59477;52.374;9.916;2022-07-29T06:24:51;43.66;38.82;48.58;;
71628;Laerm;59477;52.374;9.916;2022-07-29T06:26:52;43.65;39.40;50.77;;
71628;Laerm;59477;52.374;9.916;2022-07-29T06:28:53;44.74;39.18;53.52;;
71628;Laerm;59477;52.374;9.916;2022-07-29T06:30:53;42.18;38.47;46.80;;
71628;Laerm;59477;52.374;9.916;2022-07-29T06:32:54;43.44;38.87;67.96;;
71628;Laerm;59477;52.374;9.916;2022-07-29T06:34:55;42.90;38.79;50.15;;
71628;Laerm;59477;52.374;9.916;2022-07-29T06:36:55;41.58;37.35;48.73;;
71628;Laerm;59477;52.374;9.916;2022-07-29T06:38:56;50.20;38.20;60.24;;
71628;Laerm;59477;52.374;9.916;2022-07-29T06:40:56;46.37;40.03;53.09;;
71628;Laerm;59477;52.374;9.916;2022-07-29T06:43:04;42.56;38.95;52.06;;
71628;Laerm;59477;52.374;9.916;2022-07-29T06:45:04;42.69;39.02;58.14;;
71628;Laerm;59477;52.374;9.916;2022-07-29T06:47:05;43.65;38.68;54.08;;
71628;Laerm;59477;52.374;9.916;2022-07-29T06:49:05;44.24;38.97;52.00;;
71628;Laerm;59477;52.374;9.916;2022-07-29T06:51:06;44.08;39.89;59.62;;
71628;Laerm;59477;52.374;9.916;2022-07-29T06:53:06;41.62;37.63;60.61;;
71628;Laerm;59477;52.374;9.916;2022-07-29T06:55:07;47.56;39.24;68.75;;
71628;Laerm;59477;52.374;9.916;2022-07-29T06:57:08;41.85;38.26;58.32;;
71628;Laerm;59477;52.374;9.916;2022-07-29T06:59:09;43.89;37.39;67.43;;
71628;Laerm;59477;52.374;9.916;2022-07-29T07:01:10;40.47;36.66;49.87;;
71628;Laerm;59477;52.374;9.916;2022-07-29T07:03:11;40.97;36.93;47.11;;
71628;Laerm;59477;52.374;9.916;2022-07-29T07:05:11;42.47;37.68;52.00;;
71628;Laerm;59477;52.374;9.916;2022-07-29T07:07:12;42.22;37.63;50.05;;
71628;Laerm;59477;52.374;9.916;2022-07-29T07:09:12;45.55;38.74;53.71;;
71628;Laerm;59477;52.374;9.916;2022-07-29T07:11:13;43.67;37.32;63.91;;
71628;Laerm;59477;52.374;9.916;2022-07-29T07:13:13;45.94;35.64;67.04;;
71628;Laerm;59477;52.374;9.916;2022-07-29T07:15:14;41.18;36.38;49.91;;
71628;Laerm;59477;52.374;9.916;2022-07-29T07:17:15;46.38;35.88;57.79;;
71628;Laerm;59477;52.374;9.916;2022-07-29T07:19:15;44.60;37.66;54.76;;
71628;Laerm;59477;52.374;9.916;2022-07-29T07:21:16;40.01;35.59;45.19;;
71628;Laerm;59477;52.374;9.916;2022-07-29T07:23:16;44.18;35.97;58.08;;
71628;Laerm;59477;52.374;9.916;2022-07-29T07:25:17;41.51;35.66;53.61;;
71628;Laerm;59477;52.374;9.916;2022-07-29T07:27:17;43.16;35.86;70.13;;
71628;Laerm;59477;52.374;9.916;2022-07-29T07:29:18;47.04;36.60;55.43;;
71628;Laerm;59477;52.374;9.916;2022-07-29T07:31:19;40.60;34.35;48.83;;
71628;Laerm;59477;52.374;9.916;2022-07-29T07:33:19;44.15;34.86;69.25;;
71628;Laerm;59477;52.374;9.916;2022-07-29T07:35:20;46.33;34.42;69.46;;
71628;Laerm;59477;52.374;9.916;2022-07-29T07:37:20;40.29;36.35;64.43;;
71628;Laerm;59477;52.374;9.916;2022-07-29T07:39:21;47.76;36.86;69.19;;
71628;Laerm;59477;52.374;9.916;2022-07-29T07:41:21;45.66;36.27;71.14;;
71628;Laerm;59477;52.374;9.916;2022-07-29T07:43:22;45.70;36.53;69.62;;
71628;Laerm;59477;52.374;9.916;2022-07-29T07:45:23;51.46;36.43;75.17;;
71628;Laerm;59477;52.374;9.916;2022-07-29T07:47:24;42.18;36.70;63.62;;
71628;Laerm;59477;52.374;9.916;2022-07-29T07:49:24;44.58;36.38;68.72;;
71628;Laerm;59477;52.374;9.916;2022-07-29T07:51:25;42.84;36.04;59.46;;
71628;Laerm;59477;52.374;9.916;2022-07-29T13:50:53;41.35;36.12;55.67;;
71628;Laerm;59477;52.374;9.916;2022-07-29T13:52:53;41.54;35.42;56.82;;
71628;Laerm;59477;52.374;9.916;2022-07-29T13:54:54;40.92;34.92;48.93;;
71628;Laerm;59477;52.374;9.916;2022-07-29T13:56:54;52.42;36.80;66.69;;
71628;Laerm;59477;52.374;9.916;2022-07-29T13:58:55;39.91;35.45;57.19;;
71628;Laerm;59477;52.374;9.916;2022-07-29T14:00:55;41.25;35.97;52.55;;
71628;Laerm;59477;52.374;9.916;2022-07-29T14:02:57;41.04;35.49;49.66;;
71628;Laerm;59477;52.374;9.916;2022-07-29T14:04:57;43.83;38.10;51.84;;
71628;Laerm;59477;52.374;9.916;2022-07-29T14:06:58;41.52;36.12;52.81;;
71628;Laerm;59477;52.374;9.916;2022-07-29T14:08:58;42.87;34.90;57.90;;
71628;Laerm;59477;52.374;9.916;2022-07-29T14:10:59;40.05;34.91;49.15;;
71628;Laerm;59477;52.374;9.916;2022-07-29T14:12:59;38.85;33.70;47.93;;
71628;Laerm;59477;52.374;9.916;2022-07-29T14:15:00;39.97;35.80;50.49;;
71628;Laerm;59477;52.374;9.916;2022-07-29T14:17:00;42.71;37.11;53.16;;
71628;Laerm;59477;52.374;9.916;2022-07-29T14:19:03;41.79;35.29;57.37;;
71628;Laerm;59477;52.374;9.916;2022-07-29T14:21:03;37.70;34.05;46.31;;
71628;Laerm;59477;52.374;9.916;2022-07-29T14:23:04;39.52;34.87;51.68;;
71628;Laerm;59477;52.374;9.916;2022-07-29T14:25:04;41.32;33.83;47.22;;
71628;Laerm;59477;52.374;9.916;2022-07-29T14:27:06;37.12;33.09;48.11;;
71628;Laerm;59477;52.374;9.916;2022-07-29T14:29:06;39.31;34.53;46.47;;
71628;Laerm;59477;52.374;9.916;2022-07-29T14:31:07;40.61;36.73;52.86;;
71628;Laerm;59477;52.374;9.916;2022-07-29T14:33:08;38.60;33.76;52.67;;
71628;Laerm;59477;52.374;9.916;2022-07-29T14:35:08;38.17;33.20;49.20;;
71628;Laerm;59477;52.374;9.916;2022-07-29T14:37:09;40.94;34.68;51.26;;
71628;Laerm;59477;52.374;9.916;2022-07-29T14:39:09;40.74;34.98;51.58;;
71628;Laerm;59477;52.374;9.916;2022-07-29T14:41:10;39.68;33.65;57.23;;
71628;Laerm;59477;52.374;9.916;2022-07-29T14:43:10;40.06;35.29;48.35;;
71628;Laerm;59477;52.374;9.916;2022-07-29T14:45:11;44.50;39.53;49.32;;
71628;Laerm;59477;52.374;9.916;2022-07-29T14:47:12;44.87;39.06;51.28;;
71628;Laerm;59477;52.374;9.916;2022-07-29T14:49:12;43.56;36.26;52.96;;
71628;Laerm;59477;52.374;9.916;2022-07-29T14:51:13;44.36;36.78;53.10;;
71628;Laerm;59477;52.374;9.916;2022-07-29T14:53:13;38.13;33.52;45.58;;
71628;Laerm;59477;52.374;9.916;2022-07-29T14:55:14;41.79;32.50;62.51;;
71628;Laerm;59477;52.374;9.916;2022-07-29T14:57:14;41.54;33.72;58.20;;
71628;Laerm;59477;52.374;9.916;2022-07-29T14:59:15;42.93;35.24;51.91;;
71628;Laerm;59477;52.374;9.916;2022-07-29T15:01:16;45.40;37.43;57.44;;
71628;Laerm;59477;52.374;9.916;2022-07-29T15:03:16;49.30;35.60;63.86;;
71628;Laerm;59477;52.374;9.916;2022-07-29T15:05:17;41.39;36.53;50.40;;
71628;Laerm;59477;52.374;9.916;2022-07-29T15:07:17;39.37;34.58;47.85;;
71628;Laerm;59477;52.374;9.916;2022-07-29T15:09:18;42.28;35.39;53.77;;
71628;Laerm;59477;52.374;9.916;2022-07-29T15:11:18;45.37;36.67;56.02;;
71628;Laerm;59477;52.374;9.916;2022-07-29T15:13:19;39.32;34.47;58.99;;
71628;Laerm;59477;52.374;9.916;2022-07-29T15:15:19;44.29;39.35;52.63;;
71628;Laerm;59477;52.374;9.916;2022-07-29T15:17:20;40.93;34.93;59.87;;
71628;Laerm;59477;52.374;9.916;2022-07-29T15:19:20;45.12;37.09;60.49;;
71628;Laerm;59477;52.374;9.916;2022-07-29T15:21:21;40.30;34.62;64.78;;
71628;Laerm;59477;52.374;9.916;2022-07-29T15:23:21;37.94;33.51;52.73;;
71628;Laerm;59477;52.374;9.916;2022-07-29T15:25:22;38.34;33.41;47.32;;
71628;Laerm;59477;52.374;9.916;2022-07-29T15:27:23;52.68;35.47;67.15;;
71628;Laerm;59477;52.374;9.916;2022-07-29T15:29:24;43.02;35.68;54.88;;
71628;Laerm;59477;52.374;9.916;2022-07-29T15:31:24;39.83;35.44;58.28;;
71628;Laerm;59477;52.374;9.916;2022-07-29T15:33:25;39.37;33.79;50.18;;
71628;Laerm;59477;52.374;9.916;2022-07-29T15:35:25;40.45;33.95;51.93;;
71628;Laerm;59477;52.374;9.916;2022-07-29T15:37:26;40.18;35.49;58.74;;
71628;Laerm;59477;52.374;9.916;2022-07-29T15:39:28;38.72;34.13;57.40;;
71628;Laerm;59477;52.374;9.916;2022-07-29T15:41:29;42.51;33.46;51.48;;
71628;Laerm;59477;52.374;9.916;2022-07-29T15:43:29;38.89;34.51;45.33;;
71628;Laerm;59477;52.374;9.916;2022-07-29T15:45:29;40.11;33.92;47.85;;
71628;Laerm;59477;52.374;9.916;2022-07-29T15:47:35;39.38;32.96;45.48;;
71628;Laerm;59477;52.374;9.916;2022-07-29T15:49:37;43.12;35.10;52.46;;
71628;Laerm;59477;52.374;9.916;2022-07-29T15:51:38;41.77;34.88;62.94;;
71628;Laerm;59477;52.374;9.916;2022-07-29T15:53:38;38.53;33.71;50.34;;
71628;Laerm;59477;52.374;9.916;2022-07-29T15:55:39;47.43;36.10;59.56;;
71628;Laerm;59477;52.374;9.916;2022-07-29T15:57:39;41.55;35.87;52.34;;
71628;Laerm;59477;52.374;9.916;2022-07-29T15:59:40;43.52;34.86;56.31;;
71628;Laerm;59477;52.374;9.916;2022-07-29T16:01:40;45.09;35.78;54.85;;
71628;Laerm;59477;52.374;9.916;2022-07-29T16:03:41;38.67;34.30;51.52;;
71628;Laerm;59477;52.374;9.916;2022-07-29T16:05:42;38.06;34.02;51.23;;
71628;Laerm;59477;52.374;9.916;2022-07-29T16:07:43;42.75;34.62;55.04;;
71628;Laerm;59477;52.374;9.916;2022-07-29T16:09:43;39.43;34.73;48.05;;
71628;Laerm;59477;52.374;9.916;2022-07-29T16:11:44;38.33;33.89;44.66;;
71628;Laerm;59477;52.374;9.916;2022-07-29T16:13:45;42.36;32.87;51.86;;
71628;Laerm;59477;52.374;9.916;2022-07-29T16:15:46;41.76;34.20;60.57;;
71628;Laerm;59477;52.374;9.916;2022-07-29T16:17:46;39.32;35.81;50.26;;
71628;Laerm;59477;52.374;9.916;2022-07-29T16:19:47;43.06;36.38;49.84;;
71628;Laerm;59477;52.374;9.916;2022-07-29T16:21:48;38.61;35.34;50.29;;
71628;Laerm;59477;52.374;9.916;2022-07-29T16:23:49;41.87;35.99;53.24;;
71628;Laerm;59477;52.374;9.916;2022-07-29T16:25:49;38.13;33.91;55.22;;
71628;Laerm;59477;52.374;9.916;2022-07-29T16:27:50;38.52;34.95;48.55;;
71628;Laerm;59477;52.374;9.916;2022-07-29T16:29:50;42.61;35.28;57.87;;
71628;Laerm;59477;52.374;9.916;2022-07-29T16:31:51;45.10;35.64;58.69;;
71628;Laerm;59477;52.374;9.916;2022-07-29T16:33:52;40.30;35.10;56.41;;
71628;Laerm;59477;52.374;9.916;2022-07-29T16:35:53;44.79;35.53;53.65;;
71628;Laerm;59477;52.374;9.916;2022-07-29T16:37:54;43.46;33.11;54.18;;
71628;Laerm;59477;52.374;9.916;2022-07-29T16:39:54;39.26;33.45;50.36;;
71628;Laerm;59477;52.374;9.916;2022-07-29T16:41:55;38.28;34.20;48.51;;
71628;Laerm;59477;52.374;9.916;2022-07-29T16:43:55;39.34;34.05;47.97;;
71628;Laerm;59477;52.374;9.916;2022-07-29T16:45:56;45.37;34.56;55.55;;
71628;Laerm;59477;52.374;9.916;2022-07-29T16:47:56;38.13;33.32;43.75;;
71628;Laerm;59477;52.374;9.916;2022-07-29T16:49:57;39.81;35.74;49.91;;
71628;Laerm;59477;52.374;9.916;2022-07-29T16:51:57;46.56;34.59;52.98;;
71628;Laerm;59477;52.374;9.916;2022-07-29T16:53:58;40.63;34.50;51.27;;
71628;Laerm;59477;52.374;9.916;2022-07-29T16:55:59;39.62;34.06;46.96;;
71628;Laerm;59477;52.374;9.916;2022-07-29T16:57:59;45.75;35.07;53.37;;
71628;Laerm;59477;52.374;9.916;2022-07-29T17:00:00;39.34;32.30;48.84;;
71628;Laerm;59477;52.374;9.916;2022-07-29T17:02:00;39.15;33.87;52.48;;
71628;Laerm;59477;52.374;9.916;2022-07-29T17:04:01;37.60;33.81;45.84;;
71628;Laerm;59477;52.374;9.916;2022-07-29T17:06:05;40.39;34.01;50.43;;
71628;Laerm;59477;52.374;9.916;2022-07-29T17:08:06;41.68;35.66;49.52;;
71628;Laerm;59477;52.374;9.916;2022-07-29T17:10:07;44.30;34.60;51.66;;
71628;Laerm;59477;52.374;9.916;2022-07-29T17:12:08;41.62;32.83;49.77;;
71628;Laerm;59477;52.374;9.916;2022-07-29T17:14:08;36.39;33.44;46.83;;
71628;Laerm;59477;52.374;9.916;2022-07-29T17:16:09;36.44;32.12;45.89;;
71628;Laerm;59477;52.374;9.916;2022-07-29T17:18:10;40.05;32.31;51.56;;
71628;Laerm;59477;52.374;9.916;2022-07-29T17:20:10;40.70;34.50;52.95;;
71628;Laerm;59477;52.374;9.916;2022-07-29T17:22:11;37.47;33.10;44.20;;
71628;Laerm;59477;52.374;9.916;2022-07-29T17:24:11;39.77;33.70;50.56;;
71628;Laerm;59477;52.374;9.916;2022-07-29T17:26:12;38.75;33.44;51.33;;